sim
Sign-in with your pilot id or email,
or register
Callsign
Passwort

Schedule Details

Flight Number: OEO8419
Departure: Grenoble Isere Airport (LFLS) at 06:45
Arrival: Munich Airport (EDDM) at 08:10

Weather Information
Getting current METAR information for LFLS 280930Z AUTO VRB01KT 6000 SCT004 BKN008 OVC016 10/09 Q1013 TEMPO 2500 -RADZ
Getting current METAR information for EDDM 280920Z 21003KT 150V270 9999 -RA FEW007 BKN045 08/06 Q1011 NOSIG

Schedule Frequency

Route Map